sensor_id;sensor_type;location;lat;lon;timestamp;pressure;altitude;pressure_sealevel;temperature;humidity
3697;BME280;60662;48.810;8.872;2023-09-07T06:51:53;96927.75;;;19.93;69.29
3697;BME280;60662;48.810;8.872;2023-09-07T06:54:04;96926.31;;;20.00;68.09
3697;BME280;60662;48.810;8.872;2023-09-07T06:55:06;96927.38;;;20.32;67.80
3697;BME280;60662;48.810;8.872;2023-09-07T06:56:08;96928.28;;;20.65;67.20
3697;BME280;60662;48.810;8.872;2023-09-07T06:57:09;96933.13;;;20.48;67.33
3697;BME280;60662;48.810;8.872;2023-09-07T06:58:11;96932.53;;;20.45;68.02
3697;BME280;60662;48.810;8.872;2023-09-07T06:59:13;96934.03;;;20.93;66.99
3697;BME280;60662;48.810;8.872;2023-09-07T07:00:15;96928.66;;;20.71;66.30
3697;BME280;60662;48.810;8.872;2023-09-07T07:01:16;96927.41;;;20.64;67.21
3697;BME280;60662;48.810;8.872;2023-09-07T07:02:18;96936.97;;;21.11;65.17
3697;BME280;60662;48.810;8.872;2023-09-07T07:03:19;96937.38;;;21.27;65.28
3697;BME280;60662;48.810;8.872;2023-09-07T07:04:21;96933.34;;;21.33;65.83
3697;BME280;60662;48.810;8.872;2023-09-07T07:05:22;96936.75;;;21.56;63.92
3697;BME280;60662;48.810;8.872;2023-09-07T07:06:24;96941.44;;;21.31;64.97
3697;BME280;60662;48.810;8.872;2023-09-07T07:07:26;96938.88;;;21.41;64.32
3697;BME280;60662;48.810;8.872;2023-09-07T07:08:27;96935.44;;;21.72;64.38
3697;BME280;60662;48.810;8.872;2023-09-07T07:09:30;96934.06;;;21.77;63.47
3697;BME280;60662;48.810;8.872;2023-09-07T07:10:32;96934.88;;;21.99;63.40
3697;BME280;60662;48.810;8.872;2023-09-07T07:11:33;96943.28;;;21.94;63.51
3697;BME280;60662;48.810;8.872;2023-09-07T07:12:35;96941.97;;;22.20;62.09
3697;BME280;60662;48.810;8.872;2023-09-07T07:13:36;96937.09;;;22.25;62.83
3697;BME280;60662;48.810;8.872;2023-09-07T07:14:38;96942.56;;;22.64;62.37
3697;BME280;60662;48.810;8.872;2023-09-07T07:15:41;96943.63;;;23.22;60.63
3697;BME280;60662;48.810;8.872;2023-09-07T07:16:42;96942.19;;;23.08;60.70
3697;BME280;60662;48.810;8.872;2023-09-07T07:17:44;96947.31;;;22.60;61.37
3697;BME280;60662;48.810;8.872;2023-09-07T07:18:46;96944.66;;;22.70;61.80
3697;BME280;60662;48.810;8.872;2023-09-07T07:19:47;96942.63;;;22.43;62.83
3697;BME280;60662;48.810;8.872;2023-09-07T07:20:49;96943.28;;;22.76;61.54
3697;BME280;60662;48.810;8.872;2023-09-07T07:21:51;96952.53;;;22.72;61.70
3697;BME280;60662;48.810;8.872;2023-09-07T07:22:53;96949.69;;;21.92;63.67
3697;BME280;60662;48.810;8.872;2023-09-07T07:23:54;96949.34;;;22.37;63.57
3697;BME280;60662;48.810;8.872;2023-09-07T07:24:56;96953.00;;;22.15;63.13
3697;BME280;60662;48.810;8.872;2023-09-07T07:25:58;96946.41;;;22.40;62.80
3697;BME280;60662;48.810;8.872;2023-09-07T07:26:59;96957.50;;;23.35;60.72
3697;BME280;60662;48.810;8.872;2023-09-07T07:28:01;96946.56;;;23.48;60.15
3697;BME280;60662;48.810;8.872;2023-09-07T07:29:06;96943.72;;;23.00;60.52
3697;BME280;60662;48.810;8.872;2023-09-07T07:30:09;96941.78;;;22.42;61.92
3697;BME280;60662;48.810;8.872;2023-09-07T07:31:10;96940.63;;;23.05;61.20
3697;BME280;60662;48.810;8.872;2023-09-07T07:32:12;96939.69;;;23.26;60.83
3697;BME280;60662;48.810;8.872;2023-09-07T07:33:13;96936.72;;;23.09;61.24
3697;BME280;60662;48.810;8.872;2023-09-07T07:34:15;96940.25;;;23.39;59.69
3697;BME280;60662;48.810;8.872;2023-09-07T07:35:17;96946.13;;;23.43;60.26
3697;BME280;60662;48.810;8.872;2023-09-07T07:36:18;96945.78;;;23.75;59.68
3697;BME280;60662;48.810;8.872;2023-09-07T07:37:20;96938.69;;;22.97;61.12
3697;BME280;60662;48.810;8.872;2023-09-07T07:38:21;96934.88;;;22.80;61.26
3697;BME280;60662;48.810;8.872;2023-09-07T07:39:22;96937.53;;;22.90;62.40
3697;BME280;60662;48.810;8.872;2023-09-07T07:40:24;96939.09;;;23.03;61.50
3697;BME280;60662;48.810;8.872;2023-09-07T07:41:25;96940.34;;;22.69;62.43
3697;BME280;60662;48.810;8.872;2023-09-07T07:42:27;96934.69;;;22.12;64.08
3697;BME280;60662;48.810;8.872;2023-09-07T07:43:28;96933.13;;;22.40;62.75
3697;BME280;60662;48.810;8.872;2023-09-07T07:44:30;96926.75;;;22.72;62.25
3697;BME280;60662;48.810;8.872;2023-09-07T07:45:32;96936.47;;;23.42;60.69
3697;BME280;60662;48.810;8.872;2023-09-07T07:46:37;96919.59;;;23.12;61.31
3697;BME280;60662;48.810;8.872;2023-09-07T07:47:40;96933.22;;;23.48;60.16
3697;BME280;60662;48.810;8.872;2023-09-07T07:48:42;96932.09;;;23.51;60.05
3697;BME280;60662;48.810;8.872;2023-09-07T07:49:44;96934.75;;;23.60;60.17
3697;BME280;60662;48.810;8.872;2023-09-07T07:50:45;96927.50;;;23.33;60.71
3697;BME280;60662;48.810;8.872;2023-09-07T07:51:47;96930.34;;;23.79;59.46
3697;BME280;60662;48.810;8.872;2023-09-07T07:52:48;96932.81;;;23.33;60.91
3697;BME280;60662;48.810;8.872;2023-09-07T07:53:50;96929.28;;;23.42;60.29
3697;BME280;60662;48.810;8.872;2023-09-07T07:54:52;96923.06;;;23.81;59.77
3697;BME280;60662;48.810;8.872;2023-09-07T07:55:54;96925.75;;;24.46;58.76
3697;BME280;60662;48.810;8.872;2023-09-07T07:56:57;96928.69;;;24.25;58.49
3697;BME280;60662;48.810;8.872;2023-09-07T07:57:58;96929.09;;;24.21;58.63
3697;BME280;60662;48.810;8.872;2023-09-07T07:59:00;96927.19;;;24.13;59.41
3697;BME280;60662;48.810;8.872;2023-09-07T08:00:03;96924.72;;;23.92;58.56
3697;BME280;60662;48.810;8.872;2023-09-07T08:01:13;96935.38;;;24.85;57.71
3697;BME280;60662;48.810;8.872;2023-09-07T08:02:15;96928.38;;;25.38;56.53
3697;BME280;60662;48.810;8.872;2023-09-07T08:03:17;96928.28;;;25.48;55.64
3697;BME280;60662;48.810;8.872;2023-09-07T08:04:18;96921.25;;;25.11;57.17
3697;BME280;60662;48.810;8.872;2023-09-07T08:05:20;96922.63;;;25.51;54.84
3697;BME280;60662;48.810;8.872;2023-09-07T08:06:22;96926.16;;;25.78;55.19
3697;BME280;60662;48.810;8.872;2023-09-07T08:07:23;96934.00;;;24.53;57.75
3697;BME280;60662;48.810;8.872;2023-09-07T08:08:25;96929.75;;;24.33;58.39
3697;BME280;60662;48.810;8.872;2023-09-07T08:09:26;96920.94;;;24.22;59.25
3697;BME280;60662;48.810;8.872;2023-09-07T08:10:27;96918.78;;;24.08;58.86
3697;BME280;60662;48.810;8.872;2023-09-07T08:11:32;96923.03;;;24.56;58.39
3697;BME280;60662;48.810;8.872;2023-09-07T08:12:34;96927.91;;;25.07;56.57
3697;BME280;60662;48.810;8.872;2023-09-07T08:13:35;96924.38;;;23.57;59.76
3697;BME280;60662;48.810;8.872;2023-09-07T08:14:37;96923.56;;;24.04;59.74
3697;BME280;60662;48.810;8.872;2023-09-07T08:15:39;96918.03;;;24.16;59.27
3697;BME280;60662;48.810;8.872;2023-09-07T08:16:40;96929.44;;;24.64;58.09
3697;BME280;60662;48.810;8.872;2023-09-07T08:17:42;96922.59;;;24.33;58.23
3697;BME280;60662;48.810;8.872;2023-09-07T08:18:44;96927.22;;;24.69;57.94
3697;BME280;60662;48.810;8.872;2023-09-07T08:19:46;96932.78;;;24.93;57.04
3697;BME280;60662;48.810;8.872;2023-09-07T08:20:49;96926.28;;;24.22;58.39
3697;BME280;60662;48.810;8.872;2023-09-07T08:21:51;96925.81;;;24.09;58.80
3697;BME280;60662;48.810;8.872;2023-09-07T08:22:52;96927.22;;;24.03;59.25
3697;BME280;60662;48.810;8.872;2023-09-07T08:23:54;96932.69;;;24.02;59.08
3697;BME280;60662;48.810;8.872;2023-09-07T08:24:55;96933.94;;;24.07;59.23
3697;BME280;60662;48.810;8.872;2023-09-07T08:25:57;96924.72;;;24.29;59.36
3697;BME280;60662;48.810;8.872;2023-09-07T08:27:00;96933.50;;;24.40;58.75
3697;BME280;60662;48.810;8.872;2023-09-07T08:28:01;96924.34;;;24.15;59.28
3697;BME280;60662;48.810;8.872;2023-09-07T08:29:08;96930.81;;;23.64;59.48
3697;BME280;60662;48.810;8.872;2023-09-07T08:30:13;96904.31;;;23.53;60.40
3697;BME280;60662;48.810;8.872;2023-09-07T08:31:17;96923.63;;;23.75;60.30
3697;BME280;60662;48.810;8.872;2023-09-07T08:32:23;96925.91;;;23.50;60.82
3697;BME280;60662;48.810;8.872;2023-09-07T08:33:25;96920.22;;;23.15;61.27
3697;BME280;60662;48.810;8.872;2023-09-07T08:34:31;96926.66;;;23.23;61.96
3697;BME280;60662;48.810;8.872;2023-09-07T08:35:32;96924.69;;;24.02;60.32
3697;BME280;60662;48.810;8.872;2023-09-07T08:36:37;96930.59;;;24.05;59.40
3697;BME280;60662;48.810;8.872;2023-09-07T08:37:39;96923.63;;;23.75;60.46
3697;BME280;60662;48.810;8.872;2023-09-07T08:38:41;96917.81;;;24.37;59.80
3697;BME280;60662;48.810;8.872;2023-09-07T08:39:43;96926.69;;;24.27;59.37
3697;BME280;60662;48.810;8.872;2023-09-07T08:40:44;96924.09;;;24.45;59.17
3697;BME280;60662;48.810;8.872;2023-09-07T08:41:47;96926.78;;;24.36;59.15
3697;BME280;60662;48.810;8.872;2023-09-07T08:43:03;96927.50;;;24.66;59.01
3697;BME280;60662;48.810;8.872;2023-09-07T08:44:06;96936.75;;;24.71;58.73
3697;BME280;60662;48.810;8.872;2023-09-07T08:45:11;96928.88;;;24.42;59.15
3697;BME280;60662;48.810;8.872;2023-09-07T08:46:18;96926.03;;;24.16;59.79
3697;BME280;60662;48.810;8.872;2023-09-07T08:47:20;96934.75;;;24.45;58.79
3697;BME280;60662;48.810;8.872;2023-09-07T08:48:21;96929.53;;;23.69;60.67
3697;BME280;60662;48.810;8.872;2023-09-07T08:49:23;96931.41;;;24.06;60.77
3697;BME280;60662;48.810;8.872;2023-09-07T08:50:26;96937.31;;;24.00;60.24
3697;BME280;60662;48.810;8.872;2023-09-07T08:51:29;96930.91;;;23.73;60.69
3697;BME280;60662;48.810;8.872;2023-09-07T08:52:31;96923.22;;;23.79;60.67
3697;BME280;60662;48.810;8.872;2023-09-07T08:53:33;96929.81;;;24.97;58.47
3697;BME280;60662;48.810;8.872;2023-09-07T08:54:35;96927.00;;;24.52;58.27
3697;BME280;60662;48.810;8.872;2023-09-07T08:55:38;96930.50;;;24.53;59.09
3697;BME280;60662;48.810;8.872;2023-09-07T08:56:39;96929.66;;;24.52;59.72
3697;BME280;60662;48.810;8.872;2023-09-07T08:57:41;96929.91;;;24.31;58.95
3697;BME280;60662;48.810;8.872;2023-09-07T08:58:43;96925.28;;;24.33;58.79
3697;BME280;60662;48.810;8.872;2023-09-07T08:59:46;96928.97;;;23.75;60.19
3697;BME280;60662;48.810;8.872;2023-09-07T09:00:48;96930.06;;;23.82;60.81
3697;BME280;60662;48.810;8.872;2023-09-07T09:01:56;96930.25;;;23.71;60.38
3697;BME280;60662;48.810;8.872;2023-09-07T09:02:58;96928.25;;;23.73;61.38
3697;BME280;60662;48.810;8.872;2023-09-07T09:04:00;96934.41;;;23.83;60.44
3697;BME280;60662;48.810;8.872;2023-09-07T09:05:02;96926.00;;;24.25;59.32
3697;BME280;60662;48.810;8.872;2023-09-07T09:06:04;96933.47;;;24.50;59.15
3697;BME280;60662;48.810;8.872;2023-09-07T09:07:06;96930.06;;;24.57;59.00
3697;BME280;60662;48.810;8.872;2023-09-07T09:08:08;96933.97;;;25.09;58.08
3697;BME280;60662;48.810;8.872;2023-09-07T09:09:21;96929.75;;;24.33;59.04
3697;BME280;60662;48.810;8.872;2023-09-07T09:10:23;96935.78;;;24.35;60.28
3697;BME280;60662;48.810;8.872;2023-09-07T09:11:26;96929.91;;;25.41;57.50
3697;BME280;60662;48.810;8.872;2023-09-07T09:12:29;96929.78;;;23.95;60.15
3697;BME280;60662;48.810;8.872;2023-09-07T09:13:30;96933.97;;;23.98;60.93
3697;BME280;60662;48.810;8.872;2023-09-07T09:14:34;96935.19;;;23.56;61.44
3697;BME280;60662;48.810;8.872;2023-09-07T09:15:35;96932.44;;;23.95;61.21
3697;BME280;60662;48.810;8.872;2023-09-07T09:16:37;96937.31;;;24.00;60.77
3697;BME280;60662;48.810;8.872;2023-09-07T09:17:38;96933.03;;;25.36;58.33
3697;BME280;60662;48.810;8.872;2023-09-07T09:18:50;96923.09;;;26.26;56.98
3697;BME280;60662;48.810;8.872;2023-09-07T09:19:53;96928.16;;;25.50;57.84
3697;BME280;60662;48.810;8.872;2023-09-07T09:20:55;96925.38;;;25.86;56.57
3697;BME280;60662;48.810;8.872;2023-09-07T09:21:57;96931.78;;;24.76;58.78
3697;BME280;60662;48.810;8.872;2023-09-07T09:22:59;96921.25;;;24.19;60.11
3697;BME280;60662;48.810;8.872;2023-09-07T09:24:10;96933.56;;;25.22;58.87
3697;BME280;60662;48.810;8.872;2023-09-07T09:25:12;96928.47;;;25.73;57.34
3697;BME280;60662;48.810;8.872;2023-09-07T09:26:13;96925.31;;;25.15;59.21
3697;BME280;60662;48.810;8.872;2023-09-07T09:27:15;96926.00;;;24.53;59.94
3697;BME280;60662;48.810;8.872;2023-09-07T09:28:17;96924.16;;;24.26;60.51
3697;BME280;60662;48.810;8.872;2023-09-07T09:29:22;96927.78;;;24.62;60.35
3697;BME280;60662;48.810;8.872;2023-09-07T09:30:25;96927.91;;;25.43;58.68
3697;BME280;60662;48.810;8.872;2023-09-07T09:31:26;96928.59;;;25.27;58.57
3697;BME280;60662;48.810;8.872;2023-09-07T09:32:29;96926.78;;;24.91;59.43
3697;BME280;60662;48.810;8.872;2023-09-07T09:33:31;96918.22;;;25.68;58.03
3697;BME280;60662;48.810;8.872;2023-09-07T09:34:35;96922.00;;;25.84;56.72
3697;BME280;60662;48.810;8.872;2023-09-07T09:35:37;96921.16;;;25.83;57.85
3697;BME280;60662;48.810;8.872;2023-09-07T09:36:42;96923.78;;;25.49;57.34
3697;BME280;60662;48.810;8.872;2023-09-07T09:37:48;96913.25;;;25.47;57.70
3697;BME280;60662;48.810;8.872;2023-09-07T09:38:51;96918.38;;;25.67;57.79
3697;BME280;60662;48.810;8.872;2023-09-07T09:39:55;96910.94;;;25.79;57.05
3697;BME280;60662;48.810;8.872;2023-09-07T09:40:58;96912.53;;;26.24;56.17
3697;BME280;60662;48.810;8.872;2023-09-07T09:41:59;96911.19;;;25.41;57.81
3697;BME280;60662;48.810;8.872;2023-09-07T09:43:05;96918.44;;;25.13;58.75
3697;BME280;60662;48.810;8.872;2023-09-07T09:44:07;96911.72;;;24.90;59.68
3697;BME280;60662;48.810;8.872;2023-09-07T09:45:10;96917.13;;;24.99;58.78
3697;BME280;60662;48.810;8.872;2023-09-07T09:46:12;96915.78;;;24.94;58.93
3697;BME280;60662;48.810;8.872;2023-09-07T09:47:15;96907.31;;;26.14;56.86
3697;BME280;60662;48.810;8.872;2023-09-07T09:48:18;96911.13;;;27.22;55.52
3697;BME280;60662;48.810;8.872;2023-09-07T09:49:21;96907.16;;;28.24;53.55
3697;BME280;60662;48.810;8.872;2023-09-07T09:50:23;96914.41;;;28.86;52.27
3697;BME280;60662;48.810;8.872;2023-09-07T09:51:27;96910.38;;;29.37;50.80
3697;BME280;60662;48.810;8.872;2023-09-07T09:52:29;96904.88;;;28.44;52.00
3697;BME280;60662;48.810;8.872;2023-09-07T09:53:31;96909.41;;;29.06;51.24
3697;BME280;60662;48.810;8.872;2023-09-07T09:54:35;96909.19;;;29.16;51.10
3697;BME280;60662;48.810;8.872;2023-09-07T09:55:37;96908.75;;;28.41;52.45
3697;BME280;60662;48.810;8.872;2023-09-07T09:56:41;96911.41;;;28.81;51.61
3697;BME280;60662;48.810;8.872;2023-09-07T09:57:42;96914.78;;;29.53;50.26
3697;BME280;60662;48.810;8.872;2023-09-07T09:58:44;96909.69;;;28.57;50.94
3697;BME280;60662;48.810;8.872;2023-09-07T09:59:45;96908.38;;;28.52;51.45
3697;BME280;60662;48.810;8.872;2023-09-07T10:00:50;96912.69;;;28.22;52.40
3697;BME280;60662;48.810;8.872;2023-09-07T10:01:53;96911.63;;;28.31;51.75
3697;BME280;60662;48.810;8.872;2023-09-07T10:03:00;96915.69;;;29.22;51.26
3697;BME280;60662;48.810;8.872;2023-09-07T10:04:04;96912.13;;;27.29;53.86
3697;BME280;60662;48.810;8.872;2023-09-07T10:05:07;96912.56;;;28.15;52.98
3697;BME280;60662;48.810;8.872;2023-09-07T10:06:28;96907.78;;;29.81;50.05
3697;BME280;60662;48.810;8.872;2023-09-07T10:07:41;96908.84;;;30.55;48.57
3697;BME280;60662;48.810;8.872;2023-09-07T10:08:57;96904.25;;;30.71;47.65
3697;BME280;60662;48.810;8.872;2023-09-07T10:09:59;96911.69;;;30.69;47.83
3697;BME280;60662;48.810;8.872;2023-09-07T10:11:07;96915.72;;;30.13;48.38
3697;BME280;60662;48.810;8.872;2023-09-07T10:12:12;96911.44;;;29.27;49.67
3697;BME280;60662;48.810;8.872;2023-09-07T10:13:28;96908.88;;;28.88;51.83
3697;BME280;60662;48.810;8.872;2023-09-07T10:14:41;96907.28;;;30.01;49.69
3697;BME280;60662;48.810;8.872;2023-09-07T10:15:43;96911.69;;;30.90;47.73
3697;BME280;60662;48.810;8.872;2023-09-07T10:16:48;96904.53;;;29.86;48.83
3697;BME280;60662;48.810;8.872;2023-09-07T10:19:17;96910.50;;;30.26;48.73
3697;BME280;60662;48.810;8.872;2023-09-07T10:20:19;96906.34;;;31.34;47.51
3697;BME280;60662;48.810;8.872;2023-09-07T10:21:24;96910.50;;;31.58;46.15
3697;BME280;60662;48.810;8.872;2023-09-07T10:22:27;96909.31;;;31.89;46.09
3697;BME280;60662;48.810;8.872;2023-09-07T10:23:40;96912.09;;;32.37;45.11
3697;BME280;60662;48.810;8.872;2023-09-07T10:24:42;96907.31;;;32.88;44.58
3697;BME280;60662;48.810;8.872;2023-09-07T10:25:49;96896.75;;;31.74;46.00
3697;BME280;60662;48.810;8.872;2023-09-07T10:27:01;96907.22;;;32.68;44.84
3697;BME280;60662;48.810;8.872;2023-09-07T10:28:04;96914.03;;;33.12;43.89
3697;BME280;60662;48.810;8.872;2023-09-07T10:29:05;96905.34;;;33.37;43.36
3697;BME280;60662;48.810;8.872;2023-09-07T10:30:10;96898.03;;;34.05;43.01
3697;BME280;60662;48.810;8.872;2023-09-07T10:31:18;96905.69;;;34.21;41.89
3697;BME280;60662;48.810;8.872;2023-09-07T10:32:19;96889.47;;;34.08;42.02
3697;BME280;60662;48.810;8.872;2023-09-07T10:33:21;96898.47;;;33.88;42.38
3697;BME280;60662;48.810;8.872;2023-09-07T10:34:34;96891.47;;;32.30;45.00
3697;BME280;60662;48.810;8.872;2023-09-07T10:35:36;96901.59;;;33.31;43.39
3697;BME280;60662;48.810;8.872;2023-09-07T10:36:39;96892.63;;;33.91;42.78
3697;BME280;60662;48.810;8.872;2023-09-07T10:37:40;96885.97;;;33.87;43.07
3697;BME280;60662;48.810;8.872;2023-09-07T10:38:42;96893.78;;;34.36;41.98
3697;BME280;60662;48.810;8.872;2023-09-07T10:39:44;96894.28;;;33.79;42.80
3697;BME280;60662;48.810;8.872;2023-09-07T10:40:47;96889.41;;;34.34;41.93
3697;BME280;60662;48.810;8.872;2023-09-07T10:41:49;96890.09;;;34.69;41.76
3697;BME280;60662;48.810;8.872;2023-09-07T10:43:00;96891.09;;;34.22;41.65
3697;BME280;60662;48.810;8.872;2023-09-07T10:44:02;96892.22;;;33.61;42.72
3697;BME280;60662;48.810;8.872;2023-09-07T10:45:14;96881.13;;;34.68;41.36
3697;BME280;60662;48.810;8.872;2023-09-07T10:46:21;96886.69;;;34.80;41.54
3697;BME280;60662;48.810;8.872;2023-09-07T10:47:23;96890.47;;;34.20;41.65
3697;BME280;60662;48.810;8.872;2023-09-07T10:48:25;96875.97;;;33.27;42.58
3697;BME280;60662;48.810;8.872;2023-09-07T10:49:27;96881.34;;;32.03;45.27
3697;BME280;60662;48.810;8.872;2023-09-07T10:50:28;96882.81;;;31.71;45.42
3697;BME280;60662;48.810;8.872;2023-09-07T10:51:30;96889.44;;;32.94;43.70
3697;BME280;60662;48.810;8.872;2023-09-07T10:52:33;96867.22;;;33.12;43.66
3697;BME280;60662;48.810;8.872;2023-09-07T10:53:35;96885.31;;;32.49;44.11
3697;BME280;60662;48.810;8.872;2023-09-07T10:54:37;96888.50;;;30.38;47.24
3697;BME280;60662;48.810;8.872;2023-09-07T10:55:40;96887.78;;;29.23;49.85
3697;BME280;60662;48.810;8.872;2023-09-07T10:56:44;96884.06;;;30.30;47.60
3697;BME280;60662;48.810;8.872;2023-09-07T10:57:47;96877.44;;;31.49;45.76
3697;BME280;60662;48.810;8.872;2023-09-07T10:58:48;96875.78;;;32.12;44.94
3697;BME280;60662;48.810;8.872;2023-09-07T10:59:52;96868.94;;;31.81;45.10
3697;BME280;60662;48.810;8.872;2023-09-07T11:00:57;96882.44;;;32.16;44.97
3697;BME280;60662;48.810;8.872;2023-09-07T11:02:05;96871.59;;;33.26;43.44
3697;BME280;60662;48.810;8.872;2023-09-07T11:03:08;96876.16;;;33.99;42.61
3697;BME280;60662;48.810;8.872;2023-09-07T11:04:11;96877.13;;;34.25;42.23
3697;BME280;60662;48.810;8.872;2023-09-07T11:05:13;96870.34;;;33.82;41.33
3697;BME280;60662;48.810;8.872;2023-09-07T11:06:20;96871.63;;;31.74;44.40
3697;BME280;60662;48.810;8.872;2023-09-07T11:07:26;96871.63;;;31.24;46.26
3697;BME280;60662;48.810;8.872;2023-09-07T11:08:29;96874.41;;;30.94;46.81
3697;BME280;60662;48.810;8.872;2023-09-07T11:09:31;96861.94;;;31.08;46.67
3697;BME280;60662;48.810;8.872;2023-09-07T11:10:34;96870.38;;;31.20;46.11
3697;BME280;60662;48.810;8.872;2023-09-07T11:11:35;96869.47;;;31.13;47.00
3697;BME280;60662;48.810;8.872;2023-09-07T11:12:38;96868.03;;;31.17;46.89
3697;BME280;60662;48.810;8.872;2023-09-07T11:13:41;96871.06;;;31.57;46.11
3697;BME280;60662;48.810;8.872;2023-09-07T11:14:43;96865.72;;;32.89;44.04
3697;BME280;60662;48.810;8.872;2023-09-07T11:15:45;96871.41;;;33.48;43.64
3697;BME280;60662;48.810;8.872;2023-09-07T11:16:46;96864.72;;;33.91;41.94
3697;BME280;60662;48.810;8.872;2023-09-07T11:17:49;96871.13;;;33.02;43.56
3697;BME280;60662;48.810;8.872;2023-09-07T11:18:51;96864.94;;;33.76;42.41
3697;BME280;60662;48.810;8.872;2023-09-07T11:19:53;96862.09;;;34.29;41.42
3697;BME280;60662;48.810;8.872;2023-09-07T11:20:56;96872.91;;;34.43;41.41
3697;BME280;60662;48.810;8.872;2023-09-07T11:21:57;96869.19;;;34.30;41.14
3697;BME280;60662;48.810;8.872;2023-09-07T11:22:59;96866.25;;;32.64;42.99
3697;BME280;60662;48.810;8.872;2023-09-07T11:24:06;96866.94;;;32.80;43.63
3697;BME280;60662;48.810;8.872;2023-09-07T11:25:08;96870.47;;;31.90;44.40
3697;BME280;60662;48.810;8.872;2023-09-07T11:26:09;96865.88;;;31.55;45.49
3697;BME280;60662;48.810;8.872;2023-09-07T11:27:11;96869.09;;;33.18;43.40
3697;BME280;60662;48.810;8.872;2023-09-07T11:28:12;96865.56;;;33.11;42.88
3697;BME280;60662;48.810;8.872;2023-09-07T11:29:17;96858.56;;;30.84;46.24
3697;BME280;60662;48.810;8.872;2023-09-07T11:30:19;96863.88;;;31.14;46.52
3697;BME280;60662;48.810;8.872;2023-09-07T11:31:21;96867.78;;;32.80;43.91
3697;BME280;60662;48.810;8.872;2023-09-07T11:32:23;96862.84;;;33.11;43.46
3697;BME280;60662;48.810;8.872;2023-09-07T11:33:25;96864.22;;;34.14;42.13
3697;BME280;60662;48.810;8.872;2023-09-07T11:34:27;96859.25;;;34.11;42.12
3697;BME280;60662;48.810;8.872;2023-09-07T11:35:29;96870.25;;;34.23;41.98
3697;BME280;60662;48.810;8.872;2023-09-07T11:36:31;96863.38;;;34.72;40.61
3697;BME280;60662;48.810;8.872;2023-09-07T11:37:33;96867.22;;;34.96;40.79
3697;BME280;60662;48.810;8.872;2023-09-07T11:38:36;96863.13;;;34.87;41.00
3697;BME280;60662;48.810;8.872;2023-09-07T11:39:39;96872.38;;;34.14;41.57
3697;BME280;60662;48.810;8.872;2023-09-07T11:40:41;96863.28;;;33.68;42.74
3697;BME280;60662;48.810;8.872;2023-09-07T11:41:51;96863.84;;;31.64;45.73
3697;BME280;60662;48.810;8.872;2023-09-07T11:42:53;96859.78;;;30.45;47.83
3697;BME280;60662;48.810;8.872;2023-09-07T11:43:54;96868.97;;;31.59;46.19
3697;BME280;60662;48.810;8.872;2023-09-07T11:44:55;96864.53;;;31.73;45.10
3697;BME280;60662;48.810;8.872;2023-09-07T11:45:57;96863.47;;;32.99;44.09
3697;BME280;60662;48.810;8.872;2023-09-07T11:46:58;96860.09;;;33.98;42.55
3697;BME280;60662;48.810;8.872;2023-09-07T11:48:01;96864.97;;;34.48;41.45
3697;BME280;60662;48.810;8.872;2023-09-07T11:49:03;96862.63;;;33.86;42.28
3697;BME280;60662;48.810;8.872;2023-09-07T11:50:08;96865.63;;;32.62;43.65
3697;BME280;60662;48.810;8.872;2023-09-07T11:51:10;96869.75;;;33.47;42.88
3697;BME280;60662;48.810;8.872;2023-09-07T11:52:11;96862.56;;;34.20;41.77
3697;BME280;60662;48.810;8.872;2023-09-07T11:53:13;96861.19;;;34.56;41.38
3697;BME280;60662;48.810;8.872;2023-09-07T11:54:15;96864.66;;;34.70;41.43
3697;BME280;60662;48.810;8.872;2023-09-07T11:55:16;96858.84;;;35.05;40.86
3697;BME280;60662;48.810;8.872;2023-09-07T11:56:17;96856.06;;;35.43;40.44
3697;BME280;60662;48.810;8.872;2023-09-07T11:57:19;96860.09;;;35.27;39.91
3697;BME280;60662;48.810;8.872;2023-09-07T11:58:21;96859.59;;;35.44;40.20
3697;BME280;60662;48.810;8.872;2023-09-07T11:59:22;96857.75;;;34.22;41.01
3697;BME280;60662;48.810;8.872;2023-09-07T12:00:24;96863.38;;;34.20;41.43
3697;BME280;60662;48.810;8.872;2023-09-07T12:01:26;96860.13;;;33.24;42.68
3697;BME280;60662;48.810;8.872;2023-09-07T12:02:28;96861.63;;;33.47;42.73
3697;BME280;60662;48.810;8.872;2023-09-07T12:03:30;96859.00;;;32.71;44.00
3697;BME280;60662;48.810;8.872;2023-09-07T12:04:35;96857.41;;;34.05;42.57
3697;BME280;60662;48.810;8.872;2023-09-07T12:05:42;96855.31;;;34.59;42.12
3697;BME280;60662;48.810;8.872;2023-09-07T12:06:45;96849.81;;;34.72;40.71
3697;BME280;60662;48.810;8.872;2023-09-07T12:07:47;96848.69;;;34.93;40.61
3697;BME280;60662;48.810;8.872;2023-09-07T12:08:59;96855.84;;;35.13;40.91
3697;BME280;60662;48.810;8.872;2023-09-07T12:10:01;96852.97;;;35.33;40.38
3697;BME280;60662;48.810;8.872;2023-09-07T12:11:02;96851.69;;;35.10;40.78
3697;BME280;60662;48.810;8.872;2023-09-07T12:12:04;96853.13;;;34.36;40.98
3697;BME280;60662;48.810;8.872;2023-09-07T12:13:06;96851.31;;;34.68;41.33
3697;BME280;60662;48.810;8.872;2023-09-07T12:14:07;96850.56;;;33.21;42.79
3697;BME280;60662;48.810;8.872;2023-09-07T12:15:10;96852.06;;;31.43;45.57
3697;BME280;60662;48.810;8.872;2023-09-07T12:16:15;96847.22;;;31.32;47.23
3697;BME280;60662;48.810;8.872;2023-09-07T12:17:16;96851.97;;;32.22;44.76
3697;BME280;60662;48.810;8.872;2023-09-07T12:18:18;96848.50;;;32.42;43.71
3697;BME280;60662;48.810;8.872;2023-09-07T12:19:20;96844.53;;;31.96;44.76
3697;BME280;60662;48.810;8.872;2023-09-07T12:20:21;96849.56;;;33.56;42.53
3697;BME280;60662;48.810;8.872;2023-09-07T12:21:23;96851.91;;;31.23;46.21
3697;BME280;60662;48.810;8.872;2023-09-07T12:22:24;96857.44;;;31.15;46.74
3697;BME280;60662;48.810;8.872;2023-09-07T12:23:26;96857.91;;;32.46;44.69
3697;BME280;60662;48.810;8.872;2023-09-07T12:24:27;96850.56;;;33.75;42.91
3697;BME280;60662;48.810;8.872;2023-09-07T12:25:29;96843.13;;;34.29;41.45
3697;BME280;60662;48.810;8.872;2023-09-07T12:26:30;96850.28;;;34.10;42.27
3697;BME280;60662;48.810;8.872;2023-09-07T12:27:33;96855.88;;;34.15;42.32
3697;BME280;60662;48.810;8.872;2023-09-07T12:28:53;96854.31;;;33.81;42.28
3697;BME280;60662;48.810;8.872;2023-09-07T12:29:55;96850.88;;;31.74;45.62
3697;BME280;60662;48.810;8.872;2023-09-07T12:30:56;96856.44;;;31.45;45.25
3697;BME280;60662;48.810;8.872;2023-09-07T12:31:58;96848.44;;;31.86;45.46